TimeMDT,TemperatureF,Dew PointF,Humidity,Sea Level PressureIn,VisibilityMPH,Wind Direction,Wind SpeedMPH,Gust SpeedMPH,PrecipitationIn,Events,Conditions,WindDirDegrees,DateUTC
12:53 AM,28.0,24.1,85,30.26,10.0,ENE,8.1,-,N/A,,Mostly Cloudy,70,2012-10-25 06:53:00
1:53 AM,27.0,23.0,85,30.27,10.0,NE,5.8,-,N/A,,Mostly Cloudy,50,2012-10-25 07:53:00
2:03 AM,26.6,23.0,86,30.18,10.0,East,4.6,-,N/A,,Overcast,80,2012-10-25 08:03:00
2:53 AM,27.0,21.9,81,30.28,10.0,NE,8.1,-,N/A,,Overcast,50,2012-10-25 08:53:00
3:53 AM,26.1,21.0,81,30.29,10.0,ENE,8.1,-,N/A,,Overcast,60,2012-10-25 09:53:00
4:53 AM,26.1,21.0,81,30.29,10.0,ENE,12.7,-,N/A,,Overcast,70,2012-10-25 10:53:00
5:53 AM,25.0,21.0,85,30.32,10.0,ENE,9.2,-,N/A,,Overcast,70,2012-10-25 11:53:00
6:17 AM,24.8,21.2,86,30.22,10.0,ENE,10.4,-,N/A,,Overcast,70,2012-10-25 12:17:00
6:42 AM,24.8,21.2,86,30.22,10.0,ENE,10.4,-,N/A,,Overcast,70,2012-10-25 12:42:00
6:53 AM,24.8,21.2,86,30.23,10.0,ENE,10.4,-,N/A,,Overcast,70,2012-10-25 12:53:00
7:17 AM,24.8,21.2,86,30.23,10.0,ENE,10.4,-,N/A,,Overcast,70,2012-10-25 13:17:00
7:53 AM,25.0,21.0,85,30.35,10.0,ENE,10.4,-,N/A,,Overcast,70,2012-10-25 13:53:00
8:36 AM,24.8,21.2,86,30.26,10.0,ENE,8.1,-,N/A,,Overcast,70,2012-10-25 14:36:00
8:53 AM,25.0,21.9,88,30.38,8.0,ENE,11.5,-,N/A,Fog,Overcast,70,2012-10-25 14:53:00
9:53 AM,24.1,21.9,91,30.40,7.0,ENE,9.2,-,N/A,,Overcast,70,2012-10-25 15:53:00
10:53 AM,25.0,21.0,85,30.41,10.0,ENE,10.4,-,0.00,Snow,Light Snow,70,2012-10-25 16:53:00
11:34 AM,24.8,21.2,86,30.29,2.0,ENE,10.4,-,0.00,Snow,Light Snow,60,2012-10-25 17:34:00
11:53 AM,25.0,21.0,85,30.42,2.0,East,10.4,-,0.01,Snow,Light Snow,80,2012-10-25 17:53:00
12:08 PM,24.8,21.2,86,30.30,1.5,East,11.5,-,0.00,Snow,Light Snow,80,2012-10-25 18:08:00
12:23 PM,24.8,21.2,86,30.30,2.0,ENE,10.4,-,0.00,Snow,Light Snow,60,2012-10-25 18:23:00
12:40 PM,26.6,21.2,80,30.30,4.0,ENE,10.4,-,0.01,Snow,Light Snow,70,2012-10-25 18:40:00
12:53 PM,26.1,21.9,84,30.42,6.0,ENE,10.4,-,0.01,Snow,Light Snow,70,2012-10-25 18:53:00
1:45 PM,26.6,21.2,80,30.30,10.0,NE,6.9,-,0.00,,Overcast,50,2012-10-25 19:45:00
1:53 PM,26.1,21.0,81,30.43,10.0,NE,10.4,-,0.00,,Overcast,50,2012-10-25 19:53:00
2:25 PM,26.6,19.4,74,30.31,10.0,NE,6.9,-,N/A,,Overcast,50,2012-10-25 20:25:00
2:53 PM,26.1,19.9,78,30.43,10.0,Variable,4.6,-,0.00,,Overcast,0,2012-10-25 20:53:00
3:50 PM,26.6,19.4,74,30.33,1.5,NE,4.6,-,0.00,Snow,Light Snow,50,2012-10-25 21:50:00
3:51 PM,26.1,21.0,81,30.46,1.5,NE,4.6,-,0.00,Snow,Light Snow,50,2012-10-25 21:51:00
3:58 PM,26.6,21.2,80,30.33,3.0,NE,4.6,-,0.00,Snow,Light Snow,50,2012-10-25 21:58:00
4:53 PM,26.1,21.9,84,30.47,9.0,East,3.5,-,0.00,,Overcast,80,2012-10-25 22:53:00
5:33 PM,26.6,21.2,80,30.35,10.0,East,5.8,-,N/A,,Overcast,90,2012-10-25 23:33:00
5:53 PM,26.1,21.9,84,30.49,10.0,Calm,Calm,-,N/A,,Overcast,0,2012-10-25 23:53:00
6:53 PM,26.1,21.0,81,30.50,10.0,East,4.6,-,N/A,,Overcast,80,2012-10-26 00:53:00
7:53 PM,27.0,21.0,78,30.52,10.0,East,4.6,-,N/A,,Overcast,80,2012-10-26 01:53:00
8:53 PM,26.1,21.0,81,30.52,10.0,SSE,5.8,-,N/A,,Overcast,160,2012-10-26 02:53:00
9:53 PM,26.6,21.2,80,30.40,10.0,SE,3.5,-,N/A,,Overcast,130,2012-10-26 03:53:00
10:53 PM,26.1,21.0,81,30.53,9.0,Variable,4.6,-,0.00,Snow,Light Snow,0,2012-10-26 04:53:00
11:53 PM,26.1,21.0,81,30.51,10.0,ENE,3.5,-,0.00,,Overcast,60,2012-10-26 05:53:00